sensor_id;sensor_type;location;lat;lon;timestamp;temperature;humidity
69009;SHT31;56065;52.472;13.380;2022-10-16T00:01:07;17.03;82.41
69009;SHT31;56065;52.472;13.380;2022-10-16T00:03:34;17.05;82.43
69009;SHT31;56065;52.472;13.380;2022-10-16T00:06:00;17.12;82.36
69009;SHT31;56065;52.472;13.380;2022-10-16T00:08:26;17.13;82.33
69009;SHT31;56065;52.472;13.380;2022-10-16T00:10:51;17.20;82.14
69009;SHT31;56065;52.472;13.380;2022-10-16T00:13:17;17.20;82.19
69009;SHT31;56065;52.472;13.380;2022-10-16T00:15:43;17.23;82.15
69009;SHT31;56065;52.472;13.380;2022-10-16T00:18:09;17.31;82.04
69009;SHT31;56065;52.472;13.380;2022-10-16T00:20:35;17.34;81.96
69009;SHT31;56065;52.472;13.380;2022-10-16T00:23:02;17.36;81.84
69009;SHT31;56065;52.472;13.380;2022-10-16T00:25:28;17.40;81.77
69009;SHT31;56065;52.472;13.380;2022-10-16T00:27:54;17.38;81.76
69009;SHT31;56065;52.472;13.380;2022-10-16T00:30:19;17.40;81.78
69009;SHT31;56065;52.472;13.380;2022-10-16T00:32:44;17.40;81.91
69009;SHT31;56065;52.472;13.380;2022-10-16T00:35:10;17.47;81.73
69009;SHT31;56065;52.472;13.380;2022-10-16T00:37:36;17.48;81.70
69009;SHT31;56065;52.472;13.380;2022-10-16T00:40:01;17.47;81.68
69009;SHT31;56065;52.472;13.380;2022-10-16T00:42:26;17.43;81.85
69009;SHT31;56065;52.472;13.380;2022-10-16T00:44:53;17.51;81.57
69009;SHT31;56065;52.472;13.380;2022-10-16T00:47:22;17.50;81.53
69009;SHT31;56065;52.472;13.380;2022-10-16T00:49:51;17.48;81.51
69009;SHT31;56065;52.472;13.380;2022-10-16T00:52:19;17.44;81.54
69009;SHT31;56065;52.472;13.380;2022-10-16T00:54:46;17.44;81.64
69009;SHT31;56065;52.472;13.380;2022-10-16T00:57:11;17.37;81.89
69009;SHT31;56065;52.472;13.380;2022-10-16T00:59:39;17.36;82.01
69009;SHT31;56065;52.472;13.380;2022-10-16T01:02:07;17.38;81.85
69009;SHT31;56065;52.472;13.380;2022-10-16T01:04:40;17.43;81.86
69009;SHT31;56065;52.472;13.380;2022-10-16T01:10:20;17.45;81.64
69009;SHT31;56065;52.472;13.380;2022-10-16T01:15:46;17.37;81.73
69009;SHT31;56065;52.472;13.380;2022-10-16T01:18:23;17.30;81.87
69009;SHT31;56065;52.472;13.380;2022-10-16T01:20:56;17.27;81.99
69009;SHT31;56065;52.472;13.380;2022-10-16T01:28:36;17.22;82.04
69009;SHT31;56065;52.472;13.380;2022-10-16T01:31:04;17.20;82.33
69009;SHT31;56065;52.472;13.380;2022-10-16T01:33:42;17.16;82.52
69009;SHT31;56065;52.472;13.380;2022-10-16T01:36:17;17.17;82.49
69009;SHT31;56065;52.472;13.380;2022-10-16T01:38:47;17.20;82.31
69009;SHT31;56065;52.472;13.380;2022-10-16T01:41:34;17.15;82.54
69009;SHT31;56065;52.472;13.380;2022-10-16T01:44:04;17.12;82.50
69009;SHT31;56065;52.472;13.380;2022-10-16T01:46:31;17.07;82.86
69009;SHT31;56065;52.472;13.380;2022-10-16T01:48:59;17.02;82.98
69009;SHT31;56065;52.472;13.380;2022-10-16T01:51:26;17.07;82.74
69009;SHT31;56065;52.472;13.380;2022-10-16T01:53:54;17.06;82.72
69009;SHT31;56065;52.472;13.380;2022-10-16T01:56:21;17.02;82.88
69009;SHT31;56065;52.472;13.380;2022-10-16T01:58:53;17.00;82.99
69009;SHT31;56065;52.472;13.380;2022-10-16T02:01:21;17.07;82.88
69009;SHT31;56065;52.472;13.380;2022-10-16T02:03:50;17.12;82.89
69009;SHT31;56065;52.472;13.380;2022-10-16T02:06:16;17.12;82.78
69009;SHT31;56065;52.472;13.380;2022-10-16T02:08:42;17.15;82.76
69009;SHT31;56065;52.472;13.380;2022-10-16T02:11:09;17.17;82.68
69009;SHT31;56065;52.472;13.380;2022-10-16T02:13:48;17.15;82.68
69009;SHT31;56065;52.472;13.380;2022-10-16T02:16:15;17.22;82.45
69009;SHT31;56065;52.472;13.380;2022-10-16T02:18:42;17.22;82.39
69009;SHT31;56065;52.472;13.380;2022-10-16T02:24:02;17.19;82.51
69009;SHT31;56065;52.472;13.380;2022-10-16T02:26:47;17.24;82.50
69009;SHT31;56065;52.472;13.380;2022-10-16T02:29:15;17.27;82.30
69009;SHT31;56065;52.472;13.380;2022-10-16T02:31:46;17.22;82.52
69009;SHT31;56065;52.472;13.380;2022-10-16T02:34:13;17.17;82.54
69009;SHT31;56065;52.472;13.380;2022-10-16T02:36:40;17.22;82.37
69009;SHT31;56065;52.472;13.380;2022-10-16T02:39:07;17.16;82.62
69009;SHT31;56065;52.472;13.380;2022-10-16T02:41:33;17.09;82.80
69009;SHT31;56065;52.472;13.380;2022-10-16T02:43:59;17.00;83.12
69009;SHT31;56065;52.472;13.380;2022-10-16T02:46:24;17.12;82.83
69009;SHT31;56065;52.472;13.380;2022-10-16T02:48:49;17.16;82.73
69009;SHT31;56065;52.472;13.380;2022-10-16T02:51:15;17.23;82.52
69009;SHT31;56065;52.472;13.380;2022-10-16T02:53:40;17.23;82.40
69009;SHT31;56065;52.472;13.380;2022-10-16T02:56:05;17.15;82.47
69009;SHT31;56065;52.472;13.380;2022-10-16T02:58:31;17.05;82.92
69009;SHT31;56065;52.472;13.380;2022-10-16T03:00:56;16.90;83.35
69009;SHT31;56065;52.472;13.380;2022-10-16T03:03:21;16.96;83.10
69009;SHT31;56065;52.472;13.380;2022-10-16T03:05:47;16.90;83.35
69009;SHT31;56065;52.472;13.380;2022-10-16T03:08:13;16.93;83.10
69009;SHT31;56065;52.472;13.380;2022-10-16T03:10:38;16.87;83.17
69009;SHT31;56065;52.472;13.380;2022-10-16T03:13:04;16.90;83.11
69009;SHT31;56065;52.472;13.380;2022-10-16T03:15:29;16.80;83.62
69009;SHT31;56065;52.472;13.380;2022-10-16T03:17:57;16.79;83.61
69009;SHT31;56065;52.472;13.380;2022-10-16T03:20:23;16.86;83.29
69009;SHT31;56065;52.472;13.380;2022-10-16T03:22:48;16.90;83.12
69009;SHT31;56065;52.472;13.380;2022-10-16T03:25:14;16.93;83.07
69009;SHT31;56065;52.472;13.380;2022-10-16T03:27:39;16.92;83.06
69009;SHT31;56065;52.472;13.380;2022-10-16T03:30:05;16.86;83.24
69009;SHT31;56065;52.472;13.380;2022-10-16T03:32:30;16.85;83.13
69009;SHT31;56065;52.472;13.380;2022-10-16T03:34:55;16.85;83.11
69009;SHT31;56065;52.472;13.380;2022-10-16T03:37:22;16.68;83.71
69009;SHT31;56065;52.472;13.380;2022-10-16T03:39:47;16.66;83.80
69009;SHT31;56065;52.472;13.380;2022-10-16T03:42:12;16.71;83.44
69009;SHT31;56065;52.472;13.380;2022-10-16T03:44:38;16.69;83.48
69009;SHT31;56065;52.472;13.380;2022-10-16T03:47:03;16.65;83.65
69009;SHT31;56065;52.472;13.380;2022-10-16T03:49:28;16.65;83.81
69009;SHT31;56065;52.472;13.380;2022-10-16T03:51:54;16.62;83.86
69009;SHT31;56065;52.472;13.380;2022-10-16T03:54:19;16.64;83.79
69009;SHT31;56065;52.472;13.380;2022-10-16T03:56:44;16.66;83.57
69009;SHT31;56065;52.472;13.380;2022-10-16T03:59:09;16.66;83.61
69009;SHT31;56065;52.472;13.380;2022-10-16T04:01:35;16.62;83.86
69009;SHT31;56065;52.472;13.380;2022-10-16T04:04:00;16.66;83.65
69009;SHT31;56065;52.472;13.380;2022-10-16T04:06:26;16.68;83.70
69009;SHT31;56065;52.472;13.380;2022-10-16T04:08:51;16.68;83.75
69009;SHT31;56065;52.472;13.380;2022-10-16T04:11:16;16.69;83.67
69009;SHT31;56065;52.472;13.380;2022-10-16T04:13:42;16.69;83.63
69009;SHT31;56065;52.472;13.380;2022-10-16T04:16:07;16.71;83.59
69009;SHT31;56065;52.472;13.380;2022-10-16T04:18:32;16.75;83.37
69009;SHT31;56065;52.472;13.380;2022-10-16T04:21:05;16.76;83.42
69009;SHT31;56065;52.472;13.380;2022-10-16T04:23:30;16.69;83.56
69009;SHT31;56065;52.472;13.380;2022-10-16T04:25:56;16.71;83.49
69009;SHT31;56065;52.472;13.380;2022-10-16T04:28:21;16.62;83.70
69009;SHT31;56065;52.472;13.380;2022-10-16T04:30:46;16.66;83.60
69009;SHT31;56065;52.472;13.380;2022-10-16T04:33:12;16.59;83.64
69009;SHT31;56065;52.472;13.380;2022-10-16T04:35:38;16.61;83.58
69009;SHT31;56065;52.472;13.380;2022-10-16T04:38:04;16.61;83.49
69009;SHT31;56065;52.472;13.380;2022-10-16T04:40:29;16.62;83.47
69009;SHT31;56065;52.472;13.380;2022-10-16T04:42:58;16.58;83.38
69009;SHT31;56065;52.472;13.380;2022-10-16T04:45:23;16.58;83.34
69009;SHT31;56065;52.472;13.380;2022-10-16T04:47:49;16.51;83.52
69009;SHT31;56065;52.472;13.380;2022-10-16T04:50:14;16.48;83.51
69009;SHT31;56065;52.472;13.380;2022-10-16T04:52:39;16.47;83.63
69009;SHT31;56065;52.472;13.380;2022-10-16T04:55:05;16.44;83.70
69009;SHT31;56065;52.472;13.380;2022-10-16T04:57:30;16.42;83.61
69009;SHT31;56065;52.472;13.380;2022-10-16T04:59:56;16.40;83.59
69009;SHT31;56065;52.472;13.380;2022-10-16T05:02:21;16.32;84.00
69009;SHT31;56065;52.472;13.380;2022-10-16T05:04:47;16.27;84.08
69009;SHT31;56065;52.472;13.380;2022-10-16T05:07:12;16.27;83.98
69009;SHT31;56065;52.472;13.380;2022-10-16T05:09:37;16.27;83.90
69009;SHT31;56065;52.472;13.380;2022-10-16T05:12:03;16.22;84.05
69009;SHT31;56065;52.472;13.380;2022-10-16T05:14:29;16.18;84.38
69009;SHT31;56065;52.472;13.380;2022-10-16T05:16:54;16.17;84.25
69009;SHT31;56065;52.472;13.380;2022-10-16T05:19:20;16.14;84.45
69009;SHT31;56065;52.472;13.380;2022-10-16T05:21:45;16.15;84.55
69009;SHT31;56065;52.472;13.380;2022-10-16T05:24:10;16.03;84.69
69009;SHT31;56065;52.472;13.380;2022-10-16T05:26:36;16.11;84.73
69009;SHT31;56065;52.472;13.380;2022-10-16T05:29:01;16.11;84.48
69009;SHT31;56065;52.472;13.380;2022-10-16T05:31:27;16.11;84.55
69009;SHT31;56065;52.472;13.380;2022-10-16T05:34:00;16.08;84.61
69009;SHT31;56065;52.472;13.380;2022-10-16T05:36:26;16.08;84.48
69009;SHT31;56065;52.472;13.380;2022-10-16T05:38:51;16.04;84.64
69009;SHT31;56065;52.472;13.380;2022-10-16T05:41:18;16.03;84.71
69009;SHT31;56065;52.472;13.380;2022-10-16T05:43:48;16.00;84.91
69009;SHT31;56065;52.472;13.380;2022-10-16T05:46:15;16.05;84.57
69009;SHT31;56065;52.472;13.380;2022-10-16T05:48:40;16.15;84.52
69009;SHT31;56065;52.472;13.380;2022-10-16T05:51:09;16.17;84.37
69009;SHT31;56065;52.472;13.380;2022-10-16T05:53:37;16.20;84.30
69009;SHT31;56065;52.472;13.380;2022-10-16T05:56:04;16.22;84.11
69009;SHT31;56065;52.472;13.380;2022-10-16T05:58:36;16.27;83.98
69009;SHT31;56065;52.472;13.380;2022-10-16T06:01:04;16.28;83.93
69009;SHT31;56065;52.472;13.380;2022-10-16T06:03:29;16.29;84.01
69009;SHT31;56065;52.472;13.380;2022-10-16T06:05:55;16.28;83.84
69009;SHT31;56065;52.472;13.380;2022-10-16T06:08:22;16.31;83.78
69009;SHT31;56065;52.472;13.380;2022-10-16T06:10:48;16.34;83.86
69009;SHT31;56065;52.472;13.380;2022-10-16T06:13:14;16.44;83.69
69009;SHT31;56065;52.472;13.380;2022-10-16T06:15:42;16.41;83.86
69009;SHT31;56065;52.472;13.380;2022-10-16T06:18:09;16.51;83.71
69009;SHT31;56065;52.472;13.380;2022-10-16T06:20:34;16.54;83.61
69009;SHT31;56065;52.472;13.380;2022-10-16T06:23:00;16.58;83.53
69009;SHT31;56065;52.472;13.380;2022-10-16T06:25:25;16.62;83.39
69009;SHT31;56065;52.472;13.380;2022-10-16T06:27:50;16.71;83.28
69009;SHT31;56065;52.472;13.380;2022-10-16T06:30:16;16.75;83.50
69009;SHT31;56065;52.472;13.380;2022-10-16T06:32:41;16.76;83.52
69009;SHT31;56065;52.472;13.380;2022-10-16T06:35:07;16.87;83.30
69009;SHT31;56065;52.472;13.380;2022-10-16T06:37:32;16.92;83.02
69009;SHT31;56065;52.472;13.380;2022-10-16T06:39:58;16.99;82.88
69009;SHT31;56065;52.472;13.380;2022-10-16T06:42:23;17.05;82.96
69009;SHT31;56065;52.472;13.380;2022-10-16T06:44:48;16.95;82.87
69009;SHT31;56065;52.472;13.380;2022-10-16T06:47:14;16.90;83.04
69009;SHT31;56065;52.472;13.380;2022-10-16T06:49:39;17.00;82.93
69009;SHT31;56065;52.472;13.380;2022-10-16T06:52:04;17.03;82.95
69009;SHT31;56065;52.472;13.380;2022-10-16T06:54:30;17.06;82.85
69009;SHT31;56065;52.472;13.380;2022-10-16T06:56:55;17.05;82.99
69009;SHT31;56065;52.472;13.380;2022-10-16T06:59:21;17.15;82.80
69009;SHT31;56065;52.472;13.380;2022-10-16T07:01:46;17.23;82.69
69009;SHT31;56065;52.472;13.380;2022-10-16T07:04:12;17.24;82.74
69009;SHT31;56065;52.472;13.380;2022-10-16T07:06:38;17.36;82.46
69009;SHT31;56065;52.472;13.380;2022-10-16T07:09:07;17.57;82.06
69009;SHT31;56065;52.472;13.380;2022-10-16T07:11:33;17.98;81.55
69009;SHT31;56065;52.472;13.380;2022-10-16T07:13:59;18.24;80.72
69009;SHT31;56065;52.472;13.380;2022-10-16T07:16:26;18.35;80.02
69009;SHT31;56065;52.472;13.380;2022-10-16T07:18:54;18.46;80.07
69009;SHT31;56065;52.472;13.380;2022-10-16T07:21:23;18.56;79.75
69009;SHT31;56065;52.472;13.380;2022-10-16T07:23:52;18.59;79.63
69009;SHT31;56065;52.472;13.380;2022-10-16T07:26:17;18.73;79.49
69009;SHT31;56065;52.472;13.380;2022-10-16T07:28:43;18.87;79.33
69009;SHT31;56065;52.472;13.380;2022-10-16T07:31:11;19.07;78.82
69009;SHT31;56065;52.472;13.380;2022-10-16T07:33:37;19.19;78.50
69009;SHT31;56065;52.472;13.380;2022-10-16T07:36:03;19.15;78.25
69009;SHT31;56065;52.472;13.380;2022-10-16T07:38:29;19.26;78.20
69009;SHT31;56065;52.472;13.380;2022-10-16T07:40:58;19.31;78.13
69009;SHT31;56065;52.472;13.380;2022-10-16T07:43:25;19.35;77.97
69009;SHT31;56065;52.472;13.380;2022-10-16T07:45:51;19.25;78.08
69009;SHT31;56065;52.472;13.380;2022-10-16T07:48:17;19.15;78.21
69009;SHT31;56065;52.472;13.380;2022-10-16T07:50:43;19.15;78.09
69009;SHT31;56065;52.472;13.380;2022-10-16T07:53:08;19.15;78.05
69009;SHT31;56065;52.472;13.380;2022-10-16T07:55:34;19.12;78.15
69009;SHT31;56065;52.472;13.380;2022-10-16T07:57:59;19.07;78.26
69009;SHT31;56065;52.472;13.380;2022-10-16T08:00:24;18.86;78.50
69009;SHT31;56065;52.472;13.380;2022-10-16T08:02:50;18.97;78.50
69009;SHT31;56065;52.472;13.380;2022-10-16T08:05:15;19.10;78.45
69009;SHT31;56065;52.472;13.380;2022-10-16T08:07:40;19.17;78.42
69009;SHT31;56065;52.472;13.380;2022-10-16T08:10:06;19.05;78.51
69009;SHT31;56065;52.472;13.380;2022-10-16T08:12:31;19.11;78.38
69009;SHT31;56065;52.472;13.380;2022-10-16T08:14:57;19.15;78.43
69009;SHT31;56065;52.472;13.380;2022-10-16T08:17:22;19.04;78.55
69009;SHT31;56065;52.472;13.380;2022-10-16T08:19:48;19.17;78.43
69009;SHT31;56065;52.472;13.380;2022-10-16T08:22:14;19.35;78.34
69009;SHT31;56065;52.472;13.380;2022-10-16T08:24:39;19.59;77.82
69009;SHT31;56065;52.472;13.380;2022-10-16T08:27:04;19.85;77.44
69009;SHT31;56065;52.472;13.380;2022-10-16T08:29:30;20.00;76.66
69009;SHT31;56065;52.472;13.380;2022-10-16T08:31:55;20.06;76.26
69009;SHT31;56065;52.472;13.380;2022-10-16T08:34:21;20.13;76.11
69009;SHT31;56065;52.472;13.380;2022-10-16T08:36:46;20.36;75.87
69009;SHT31;56065;52.472;13.380;2022-10-16T08:39:12;20.59;75.45
69009;SHT31;56065;52.472;13.380;2022-10-16T08:47:26;20.57;74.51
69009;SHT31;56065;52.472;13.380;2022-10-16T08:50:02;20.48;74.52
69009;SHT31;56065;52.472;13.380;2022-10-16T08:52:34;20.51;74.67
69009;SHT31;56065;52.472;13.380;2022-10-16T08:55:01;20.47;74.54
69009;SHT31;56065;52.472;13.380;2022-10-16T08:57:27;20.57;74.81
69009;SHT31;56065;52.472;13.380;2022-10-16T08:59:53;20.40;74.65
69009;SHT31;56065;52.472;13.380;2022-10-16T09:02:50;20.17;74.83
69009;SHT31;56065;52.472;13.380;2022-10-16T09:05:43;20.59;74.39
69009;SHT31;56065;52.472;13.380;2022-10-16T09:11:00;22.16;70.46
69009;SHT31;56065;52.472;13.380;2022-10-16T09:13:42;22.72;68.99
69009;SHT31;56065;52.472;13.380;2022-10-16T09:16:27;22.45;68.58
69009;SHT31;56065;52.472;13.380;2022-10-16T09:19:23;21.87;69.77
69009;SHT31;56065;52.472;13.380;2022-10-16T09:21:49;22.29;69.68
69009;SHT31;56065;52.472;13.380;2022-10-16T09:24:18;22.34;69.55
69009;SHT31;56065;52.472;13.380;2022-10-16T09:26:45;22.70;68.65
69009;SHT31;56065;52.472;13.380;2022-10-16T09:29:14;23.76;66.85
69009;SHT31;56065;52.472;13.380;2022-10-16T09:31:41;23.85;64.70
69009;SHT31;56065;52.472;13.380;2022-10-16T09:34:32;24.15;63.93
69009;SHT31;56065;52.472;13.380;2022-10-16T09:36:59;24.37;63.91
69009;SHT31;56065;52.472;13.380;2022-10-16T09:39:25;24.35;64.18
69009;SHT31;56065;52.472;13.380;2022-10-16T09:41:51;24.57;63.63
69009;SHT31;56065;52.472;13.380;2022-10-16T09:44:24;25.24;61.77
69009;SHT31;56065;52.472;13.380;2022-10-16T09:47:12;25.82;59.23
69009;SHT31;56065;52.472;13.380;2022-10-16T09:49:38;26.03;58.90
69009;SHT31;56065;52.472;13.380;2022-10-16T09:52:05;24.84;61.16
69009;SHT31;56065;52.472;13.380;2022-10-16T09:54:31;24.43;62.40
69009;SHT31;56065;52.472;13.380;2022-10-16T09:57:06;24.20;62.42
69009;SHT31;56065;52.472;13.380;2022-10-16T09:59:32;23.23;64.62
69009;SHT31;56065;52.472;13.380;2022-10-16T10:02:02;23.88;63.64
69009;SHT31;56065;52.472;13.380;2022-10-16T10:04:38;24.44;62.42
69009;SHT31;56065;52.472;13.380;2022-10-16T10:07:04;24.47;61.35
69009;SHT31;56065;52.472;13.380;2022-10-16T10:09:31;24.91;61.61
69009;SHT31;56065;52.472;13.380;2022-10-16T10:12:02;24.77;61.16
69009;SHT31;56065;52.472;13.380;2022-10-16T10:17:11;24.52;61.38
69009;SHT31;56065;52.472;13.380;2022-10-16T10:27:50;24.53;61.77
69009;SHT31;56065;52.472;13.380;2022-10-16T10:30:41;23.82;62.30
69009;SHT31;56065;52.472;13.380;2022-10-16T10:33:28;23.89;62.83
69009;SHT31;56065;52.472;13.380;2022-10-16T10:41:23;24.01;61.53
69009;SHT31;56065;52.472;13.380;2022-10-16T10:44:07;24.16;61.19
69009;SHT31;56065;52.472;13.380;2022-10-16T10:46:44;24.44;60.35
69009;SHT31;56065;52.472;13.380;2022-10-16T10:54:51;26.33;57.46
69009;SHT31;56065;52.472;13.380;2022-10-16T10:57:29;26.33;55.93
69009;SHT31;56065;52.472;13.380;2022-10-16T11:05:46;25.29;57.17
69009;SHT31;56065;52.472;13.380;2022-10-16T11:08:20;25.29;57.67
69009;SHT31;56065;52.472;13.380;2022-10-16T11:10:53;25.28;57.32
69009;SHT31;56065;52.472;13.380;2022-10-16T11:13:22;26.12;56.89
69009;SHT31;56065;52.472;13.380;2022-10-16T11:15:50;27.29;54.97
69009;SHT31;56065;52.472;13.380;2022-10-16T11:18:19;28.59;52.20
69009;SHT31;56065;52.472;13.380;2022-10-16T11:20:53;29.28;50.06
69009;SHT31;56065;52.472;13.380;2022-10-16T11:23:29;28.90;49.34
69009;SHT31;56065;52.472;13.380;2022-10-16T11:26:01;27.33;51.28
69009;SHT31;56065;52.472;13.380;2022-10-16T11:28:45;27.12;51.76
69009;SHT31;56065;52.472;13.380;2022-10-16T11:31:29;26.37;52.94
69009;SHT31;56065;52.472;13.380;2022-10-16T11:37:41;25.45;52.83
69009;SHT31;56065;52.472;13.380;2022-10-16T11:39:42;25.80;53.25
69009;SHT31;56065;52.472;13.380;2022-10-16T11:42:16;26.78;52.70
69009;SHT31;56065;52.472;13.380;2022-10-16T11:45:00;27.10;51.07
69009;SHT31;56065;52.472;13.380;2022-10-16T11:47:39;27.88;49.49
69009;SHT31;56065;52.472;13.380;2022-10-16T11:55:50;27.19;49.38
69009;SHT31;56065;52.472;13.380;2022-10-16T11:58:31;27.03;49.79
69009;SHT31;56065;52.472;13.380;2022-10-16T12:01:24;26.47;50.03
69009;SHT31;56065;52.472;13.380;2022-10-16T12:04:04;26.69;50.98
69009;SHT31;56065;52.472;13.380;2022-10-16T12:08:59;26.10;49.74
69009;SHT31;56065;52.472;13.380;2022-10-16T12:16:38;27.13;50.03
69009;SHT31;56065;52.472;13.380;2022-10-16T12:19:15;27.98;47.64
69009;SHT31;56065;52.472;13.380;2022-10-16T12:21:42;27.90;46.57
69009;SHT31;56065;52.472;13.380;2022-10-16T12:24:42;28.14;46.96
69009;SHT31;56065;52.472;13.380;2022-10-16T12:27:24;28.94;45.61
69009;SHT31;56065;52.472;13.380;2022-10-16T12:29:57;30.34;45.18
69009;SHT31;56065;52.472;13.380;2022-10-16T12:32:31;30.50;43.60
69009;SHT31;56065;52.472;13.380;2022-10-16T12:34:59;29.55;43.97
69009;SHT31;56065;52.472;13.380;2022-10-16T12:37:27;29.71;44.76
69009;SHT31;56065;52.472;13.380;2022-10-16T12:39:54;29.48;44.68
69009;SHT31;56065;52.472;13.380;2022-10-16T12:44:52;28.34;45.68
69009;SHT31;56065;52.472;13.380;2022-10-16T12:47:46;27.78;45.92
69009;SHT31;56065;52.472;13.380;2022-10-16T12:50:34;26.61;48.01
69009;SHT31;56065;52.472;13.380;2022-10-16T12:53:03;26.51;48.69
69009;SHT31;56065;52.472;13.380;2022-10-16T12:55:35;26.38;49.25
69009;SHT31;56065;52.472;13.380;2022-10-16T12:58:43;25.77;50.16
69009;SHT31;56065;52.472;13.380;2022-10-16T13:04:01;25.05;50.46
69009;SHT31;56065;52.472;13.380;2022-10-16T13:06:36;24.87;51.14
69009;SHT31;56065;52.472;13.380;2022-10-16T13:11:35;24.08;52.90
69009;SHT31;56065;52.472;13.380;2022-10-16T13:22:13;24.01;53.22
69009;SHT31;56065;52.472;13.380;2022-10-16T13:25:02;24.04;53.01
69009;SHT31;56065;52.472;13.380;2022-10-16T13:27:39;23.98;53.84
69009;SHT31;56065;52.472;13.380;2022-10-16T13:30:23;23.94;53.48
69009;SHT31;56065;52.472;13.380;2022-10-16T13:32:56;23.98;53.91
69009;SHT31;56065;52.472;13.380;2022-10-16T13:35:26;23.84;54.33
69009;SHT31;56065;52.472;13.380;2022-10-16T13:38:03;23.89;54.36
69009;SHT31;56065;52.472;13.380;2022-10-16T13:40:29;23.90;54.27
69009;SHT31;56065;52.472;13.380;2022-10-16T13:42:54;23.95;54.35
69009;SHT31;56065;52.472;13.380;2022-10-16T13:45:22;24.15;54.25
69009;SHT31;56065;52.472;13.380;2022-10-16T13:47:48;24.15;54.09
69009;SHT31;56065;52.472;13.380;2022-10-16T13:50:16;24.01;54.29
69009;SHT31;56065;52.472;13.380;2022-10-16T13:52:42;23.95;54.58
69009;SHT31;56065;52.472;13.380;2022-10-16T13:55:15;23.79;54.75
69009;SHT31;56065;52.472;13.380;2022-10-16T13:57:41;23.45;55.33
69009;SHT31;56065;52.472;13.380;2022-10-16T14:00:25;23.34;55.50
69009;SHT31;56065;52.472;13.380;2022-10-16T14:03:13;23.26;55.89
69009;SHT31;56065;52.472;13.380;2022-10-16T14:05:56;22.90;56.12
69009;SHT31;56065;52.472;13.380;2022-10-16T14:08:24;22.89;56.70
69009;SHT31;56065;52.472;13.380;2022-10-16T14:10:53;23.10;56.69
69009;SHT31;56065;52.472;13.380;2022-10-16T14:13:23;23.17;56.20
69009;SHT31;56065;52.472;13.380;2022-10-16T14:15:51;23.06;56.45
69009;SHT31;56065;52.472;13.380;2022-10-16T14:18:21;23.03;56.01
69009;SHT31;56065;52.472;13.380;2022-10-16T14:20:48;22.92;56.47
69009;SHT31;56065;52.472;13.380;2022-10-16T14:25:47;23.24;55.79
69009;SHT31;56065;52.472;13.380;2022-10-16T14:28:20;23.28;55.92
69009;SHT31;56065;52.472;13.380;2022-10-16T14:30:53;23.20;56.21
69009;SHT31;56065;52.472;13.380;2022-10-16T14:33:25;23.11;56.09
69009;SHT31;56065;52.472;13.380;2022-10-16T14:36:12;22.89;57.01
69009;SHT31;56065;52.472;13.380;2022-10-16T14:38:40;22.51;57.26
69009;SHT31;56065;52.472;13.380;2022-10-16T14:41:06;22.44;57.58
69009;SHT31;56065;52.472;13.380;2022-10-16T14:43:40;22.41;57.60
69009;SHT31;56065;52.472;13.380;2022-10-16T14:46:14;22.31;58.17
69009;SHT31;56065;52.472;13.380;2022-10-16T14:48:42;22.00;58.04
69009;SHT31;56065;52.472;13.380;2022-10-16T14:51:13;21.97;58.70
69009;SHT31;56065;52.472;13.380;2022-10-16T14:53:38;21.83;58.32
69009;SHT31;56065;52.472;13.380;2022-10-16T14:56:18;21.77;58.64
69009;SHT31;56065;52.472;13.380;2022-10-16T14:58:44;21.74;58.45
69009;SHT31;56065;52.472;13.380;2022-10-16T15:01:10;21.61;58.81
69009;SHT31;56065;52.472;13.380;2022-10-16T15:03:37;21.63;58.81
69009;SHT31;56065;52.472;13.380;2022-10-16T15:06:02;21.56;58.91
69009;SHT31;56065;52.472;13.380;2022-10-16T15:08:28;21.47;58.78
69009;SHT31;56065;52.472;13.380;2022-10-16T15:10:53;21.37;59.06
69009;SHT31;56065;52.472;13.380;2022-10-16T15:13:18;21.33;59.26
69009;SHT31;56065;52.472;13.380;2022-10-16T15:15:45;21.27;59.34
69009;SHT31;56065;52.472;13.380;2022-10-16T15:18:11;21.20;59.56
69009;SHT31;56065;52.472;13.380;2022-10-16T15:20:39;21.12;59.08
69009;SHT31;56065;52.472;13.380;2022-10-16T15:23:16;20.99;59.37
69009;SHT31;56065;52.472;13.380;2022-10-16T15:25:47;20.96;59.35
69009;SHT31;56065;52.472;13.380;2022-10-16T15:28:14;20.92;59.46
69009;SHT31;56065;52.472;13.380;2022-10-16T15:30:40;20.81;59.91
69009;SHT31;56065;52.472;13.380;2022-10-16T15:33:12;20.71;59.98
69009;SHT31;56065;52.472;13.380;2022-10-16T15:35:38;20.64;60.29
69009;SHT31;56065;52.472;13.380;2022-10-16T15:38:03;20.55;60.99
69009;SHT31;56065;52.472;13.380;2022-10-16T15:40:29;20.49;60.78
69009;SHT31;56065;52.472;13.380;2022-10-16T15:42:54;20.41;60.83
69009;SHT31;56065;52.472;13.380;2022-10-16T15:45:20;20.30;61.27
69009;SHT31;56065;52.472;13.380;2022-10-16T15:47:45;20.30;61.78
69009;SHT31;56065;52.472;13.380;2022-10-16T15:50:15;20.26;61.44
69009;SHT31;56065;52.472;13.380;2022-10-16T15:52:41;20.17;62.03
69009;SHT31;56065;52.472;13.380;2022-10-16T15:55:11;20.12;61.93
69009;SHT31;56065;52.472;13.380;2022-10-16T15:57:38;20.01;61.85
69009;SHT31;56065;52.472;13.380;2022-10-16T16:00:13;19.98;62.40
69009;SHT31;56065;52.472;13.380;2022-10-16T16:02:40;19.87;61.87
69009;SHT31;56065;52.472;13.380;2022-10-16T16:05:07;19.77;62.01
69009;SHT31;56065;52.472;13.380;2022-10-16T16:07:34;19.65;62.29
69009;SHT31;56065;52.472;13.380;2022-10-16T16:09:59;19.51;62.49
69009;SHT31;56065;52.472;13.380;2022-10-16T16:12:25;19.44;62.60
69009;SHT31;56065;52.472;13.380;2022-10-16T16:14:50;19.32;62.70
69009;SHT31;56065;52.472;13.380;2022-10-16T16:17:16;19.21;62.95
69009;SHT31;56065;52.472;13.380;2022-10-16T16:19:42;19.10;63.20
69009;SHT31;56065;52.472;13.380;2022-10-16T16:22:07;19.04;63.51
69009;SHT31;56065;52.472;13.380;2022-10-16T16:24:32;18.93;63.41
69009;SHT31;56065;52.472;13.380;2022-10-16T16:26:58;18.84;63.71
69009;SHT31;56065;52.472;13.380;2022-10-16T16:29:23;18.74;63.81
69009;SHT31;56065;52.472;13.380;2022-10-16T16:31:48;18.60;64.40
69009;SHT31;56065;52.472;13.380;2022-10-16T16:34:14;18.56;64.45
69009;SHT31;56065;52.472;13.380;2022-10-16T16:36:39;18.47;64.77
69009;SHT31;56065;52.472;13.380;2022-10-16T16:39:05;18.37;64.91
69009;SHT31;56065;52.472;13.380;2022-10-16T16:41:31;18.32;64.82
69009;SHT31;56065;52.472;13.380;2022-10-16T16:44:02;18.24;65.02
69009;SHT31;56065;52.472;13.380;2022-10-16T16:46:28;18.17;65.31
69009;SHT31;56065;52.472;13.380;2022-10-16T16:48:53;18.12;65.58
69009;SHT31;56065;52.472;13.380;2022-10-16T16:51:20;18.04;65.58